sensor_id;sensor_type;location;lat;lon;timestamp;P1;durP1;ratioP1;P2;durP2;ratioP2
37205;SDS011;23099;42.636;23.198;2022-07-29T00:01:37;11.30;;;7.03;;
37205;SDS011;23099;42.636;23.198;2022-07-29T00:04:04;11.15;;;6.38;;
37205;SDS011;23099;42.636;23.198;2022-07-29T00:06:31;10.63;;;5.57;;
37205;SDS011;23099;42.636;23.198;2022-07-29T00:08:58;13.45;;;7.03;;
37205;SDS011;23099;42.636;23.198;2022-07-29T00:11:24;14.00;;;7.30;;
37205;SDS011;23099;42.636;23.198;2022-07-29T00:13:51;15.38;;;8.52;;
37205;SDS011;23099;42.636;23.198;2022-07-29T00:16:18;16.02;;;9.07;;
37205;SDS011;23099;42.636;23.198;2022-07-29T00:18:46;17.58;;;9.18;;
37205;SDS011;23099;42.636;23.198;2022-07-29T00:21:13;14.90;;;8.95;;
37205;SDS011;23099;42.636;23.198;2022-07-29T00:23:40;14.85;;;8.68;;
37205;SDS011;23099;42.636;23.198;2022-07-29T00:26:06;15.55;;;8.57;;
37205;SDS011;23099;42.636;23.198;2022-07-29T00:28:33;15.77;;;8.77;;
37205;SDS011;23099;42.636;23.198;2022-07-29T00:31:00;13.45;;;8.27;;
37205;SDS011;23099;42.636;23.198;2022-07-29T00:33:27;18.08;;;9.13;;
37205;SDS011;23099;42.636;23.198;2022-07-29T00:35:56;18.95;;;9.65;;
37205;SDS011;23099;42.636;23.198;2022-07-29T00:38:21;15.20;;;9.07;;
37205;SDS011;23099;42.636;23.198;2022-07-29T00:40:48;16.48;;;9.85;;
37205;SDS011;23099;42.636;23.198;2022-07-29T00:43:15;19.88;;;10.13;;
37205;SDS011;23099;42.636;23.198;2022-07-29T00:45:43;17.25;;;9.48;;
37205;SDS011;23099;42.636;23.198;2022-07-29T00:48:10;16.08;;;9.77;;
37205;SDS011;23099;42.636;23.198;2022-07-29T00:50:37;14.98;;;8.73;;
37205;SDS011;23099;42.636;23.198;2022-07-29T00:53:06;17.13;;;9.45;;
37205;SDS011;23099;42.636;23.198;2022-07-29T00:55:34;16.02;;;8.85;;
37205;SDS011;23099;42.636;23.198;2022-07-29T00:58:01;15.63;;;8.95;;
37205;SDS011;23099;42.636;23.198;2022-07-29T01:00:28;20.92;;;10.43;;
37205;SDS011;23099;42.636;23.198;2022-07-29T01:02:55;16.52;;;9.77;;
37205;SDS011;23099;42.636;23.198;2022-07-29T01:05:23;14.57;;;8.40;;
37205;SDS011;23099;42.636;23.198;2022-07-29T01:07:53;15.88;;;8.85;;
37205;SDS011;23099;42.636;23.198;2022-07-29T01:10:22;19.92;;;8.95;;
37205;SDS011;23099;42.636;23.198;2022-07-29T01:12:50;16.13;;;9.32;;
37205;SDS011;23099;42.636;23.198;2022-07-29T01:15:19;16.30;;;8.85;;
37205;SDS011;23099;42.636;23.198;2022-07-29T01:17:49;17.92;;;10.10;;
37205;SDS011;23099;42.636;23.198;2022-07-29T01:20:23;18.83;;;9.20;;
37205;SDS011;23099;42.636;23.198;2022-07-29T01:23:01;17.38;;;9.57;;
37205;SDS011;23099;42.636;23.198;2022-07-29T01:26:06;17.27;;;9.27;;
37205;SDS011;23099;42.636;23.198;2022-07-29T01:28:54;14.60;;;9.00;;
37205;SDS011;23099;42.636;23.198;2022-07-29T01:31:28;13.43;;;9.10;;
37205;SDS011;23099;42.636;23.198;2022-07-29T01:34:03;17.30;;;8.90;;
37205;SDS011;23099;42.636;23.198;2022-07-29T01:36:35;16.63;;;9.40;;
37205;SDS011;23099;42.636;23.198;2022-07-29T01:39:07;16.65;;;8.52;;
37205;SDS011;23099;42.636;23.198;2022-07-29T01:41:38;17.48;;;9.07;;
37205;SDS011;23099;42.636;23.198;2022-07-29T01:44:13;18.08;;;9.70;;
37205;SDS011;23099;42.636;23.198;2022-07-29T01:46:45;17.45;;;9.05;;
37205;SDS011;23099;42.636;23.198;2022-07-29T01:49:17;14.82;;;8.98;;
37205;SDS011;23099;42.636;23.198;2022-07-29T01:51:49;12.65;;;8.48;;
37205;SDS011;23099;42.636;23.198;2022-07-29T01:54:19;13.68;;;8.10;;
37205;SDS011;23099;42.636;23.198;2022-07-29T01:56:51;12.30;;;8.07;;
37205;SDS011;23099;42.636;23.198;2022-07-29T01:59:23;13.07;;;8.07;;
37205;SDS011;23099;42.636;23.198;2022-07-29T02:01:53;14.00;;;8.68;;
37205;SDS011;23099;42.636;23.198;2022-07-29T02:06:48;17.17;;;8.52;;
37205;SDS011;23099;42.636;23.198;2022-07-29T02:09:17;15.65;;;9.20;;
37205;SDS011;23099;42.636;23.198;2022-07-29T02:11:47;13.38;;;8.75;;
37205;SDS011;23099;42.636;23.198;2022-07-29T02:14:16;15.10;;;8.68;;
37205;SDS011;23099;42.636;23.198;2022-07-29T02:19:13;13.55;;;8.48;;
37205;SDS011;23099;42.636;23.198;2022-07-29T02:21:42;17.38;;;9.40;;
37205;SDS011;23099;42.636;23.198;2022-07-29T02:24:11;15.13;;;8.82;;
37205;SDS011;23099;42.636;23.198;2022-07-29T02:26:38;21.02;;;9.98;;
37205;SDS011;23099;42.636;23.198;2022-07-29T02:29:07;15.88;;;8.18;;
37205;SDS011;23099;42.636;23.198;2022-07-29T02:31:36;15.75;;;8.57;;
37205;SDS011;23099;42.636;23.198;2022-07-29T02:34:06;15.45;;;8.98;;
37205;SDS011;23099;42.636;23.198;2022-07-29T02:36:35;14.63;;;8.25;;
37205;SDS011;23099;42.636;23.198;2022-07-29T02:39:03;13.60;;;8.50;;
37205;SDS011;23099;42.636;23.198;2022-07-29T02:41:33;14.32;;;8.25;;
37205;SDS011;23099;42.636;23.198;2022-07-29T02:44:09;14.80;;;8.68;;
37205;SDS011;23099;42.636;23.198;2022-07-29T02:46:37;15.07;;;8.15;;
37205;SDS011;23099;42.636;23.198;2022-07-29T02:49:12;13.75;;;8.23;;
37205;SDS011;23099;42.636;23.198;2022-07-29T02:51:43;16.52;;;9.43;;
37205;SDS011;23099;42.636;23.198;2022-07-29T02:54:18;14.48;;;9.00;;
37205;SDS011;23099;42.636;23.198;2022-07-29T02:56:48;16.73;;;9.10;;
37205;SDS011;23099;42.636;23.198;2022-07-29T02:59:19;14.45;;;9.15;;
37205;SDS011;23099;42.636;23.198;2022-07-29T03:01:50;16.23;;;9.55;;
37205;SDS011;23099;42.636;23.198;2022-07-29T03:04:19;17.05;;;8.75;;
37205;SDS011;23099;42.636;23.198;2022-07-29T03:06:50;14.30;;;8.02;;
37205;SDS011;23099;42.636;23.198;2022-07-29T03:11:45;16.05;;;7.80;;
37205;SDS011;23099;42.636;23.198;2022-07-29T03:14:12;19.70;;;8.32;;
37205;SDS011;23099;42.636;23.198;2022-07-29T03:16:39;14.85;;;7.53;;
37205;SDS011;23099;42.636;23.198;2022-07-29T03:19:07;13.82;;;7.80;;
37205;SDS011;23099;42.636;23.198;2022-07-29T03:21:35;9.60;;;6.80;;
37205;SDS011;23099;42.636;23.198;2022-07-29T03:24:02;10.35;;;6.07;;
37205;SDS011;23099;42.636;23.198;2022-07-29T03:26:29;10.13;;;6.15;;
37205;SDS011;23099;42.636;23.198;2022-07-29T03:28:56;10.25;;;5.70;;
37205;SDS011;23099;42.636;23.198;2022-07-29T03:31:23;11.88;;;7.00;;
37205;SDS011;23099;42.636;23.198;2022-07-29T03:33:49;13.35;;;6.65;;
37205;SDS011;23099;42.636;23.198;2022-07-29T03:36:16;10.35;;;7.13;;
37205;SDS011;23099;42.636;23.198;2022-07-29T03:38:44;9.82;;;7.00;;
37205;SDS011;23099;42.636;23.198;2022-07-29T03:41:13;13.52;;;6.90;;
37205;SDS011;23099;42.636;23.198;2022-07-29T03:43:42;19.17;;;8.98;;
37205;SDS011;23099;42.636;23.198;2022-07-29T03:46:10;17.35;;;8.63;;
37205;SDS011;23099;42.636;23.198;2022-07-29T03:48:41;17.73;;;8.48;;
37205;SDS011;23099;42.636;23.198;2022-07-29T03:51:11;13.93;;;9.10;;
37205;SDS011;23099;42.636;23.198;2022-07-29T03:53:40;17.27;;;8.50;;
37205;SDS011;23099;42.636;23.198;2022-07-29T03:56:08;14.18;;;9.23;;
37205;SDS011;23099;42.636;23.198;2022-07-29T03:58:38;15.02;;;8.57;;
37205;SDS011;23099;42.636;23.198;2022-07-29T04:01:05;14.85;;;8.65;;
37205;SDS011;23099;42.636;23.198;2022-07-29T04:03:32;16.55;;;8.27;;
37205;SDS011;23099;42.636;23.198;2022-07-29T04:06:01;13.68;;;7.80;;
37205;SDS011;23099;42.636;23.198;2022-07-29T04:08:30;15.00;;;8.93;;
37205;SDS011;23099;42.636;23.198;2022-07-29T04:10:57;14.07;;;8.38;;
37205;SDS011;23099;42.636;23.198;2022-07-29T04:13:25;13.77;;;8.57;;
37205;SDS011;23099;42.636;23.198;2022-07-29T04:15:52;20.98;;;11.52;;
37205;SDS011;23099;42.636;23.198;2022-07-29T04:18:19;19.95;;;12.30;;
37205;SDS011;23099;42.636;23.198;2022-07-29T04:20:45;21.52;;;16.10;;
37205;SDS011;23099;42.636;23.198;2022-07-29T04:23:12;13.68;;;9.15;;
37205;SDS011;23099;42.636;23.198;2022-07-29T04:25:39;14.10;;;8.43;;
37205;SDS011;23099;42.636;23.198;2022-07-29T04:28:07;12.70;;;9.07;;
37205;SDS011;23099;42.636;23.198;2022-07-29T04:30:36;13.75;;;9.68;;
37205;SDS011;23099;42.636;23.198;2022-07-29T04:33:05;16.08;;;10.07;;
37205;SDS011;23099;42.636;23.198;2022-07-29T04:35:33;16.20;;;8.60;;
37205;SDS011;23099;42.636;23.198;2022-07-29T04:38:01;13.75;;;8.13;;
37205;SDS011;23099;42.636;23.198;2022-07-29T04:40:29;19.30;;;8.60;;
37205;SDS011;23099;42.636;23.198;2022-07-29T04:42:55;14.50;;;9.00;;
37205;SDS011;23099;42.636;23.198;2022-07-29T04:45:22;14.85;;;10.27;;
37205;SDS011;23099;42.636;23.198;2022-07-29T04:47:51;15.80;;;10.07;;
37205;SDS011;23099;42.636;23.198;2022-07-29T04:50:17;15.55;;;9.07;;
37205;SDS011;23099;42.636;23.198;2022-07-29T04:52:44;11.15;;;7.47;;
37205;SDS011;23099;42.636;23.198;2022-07-29T04:55:11;15.65;;;7.78;;
37205;SDS011;23099;42.636;23.198;2022-07-29T04:57:38;13.80;;;7.43;;
37205;SDS011;23099;42.636;23.198;2022-07-29T05:00:05;12.30;;;6.38;;
37205;SDS011;23099;42.636;23.198;2022-07-29T05:05:01;13.80;;;6.95;;
37205;SDS011;23099;42.636;23.198;2022-07-29T05:09:55;12.45;;;7.40;;
37205;SDS011;23099;42.636;23.198;2022-07-29T05:12:22;11.93;;;8.02;;
37205;SDS011;23099;42.636;23.198;2022-07-29T05:14:48;11.60;;;7.70;;
37205;SDS011;23099;42.636;23.198;2022-07-29T05:17:15;13.90;;;9.30;;
37205;SDS011;23099;42.636;23.198;2022-07-29T05:19:42;17.67;;;9.50;;
37205;SDS011;23099;42.636;23.198;2022-07-29T05:22:11;16.70;;;10.20;;
37205;SDS011;23099;42.636;23.198;2022-07-29T05:27:04;14.63;;;9.45;;
37205;SDS011;23099;42.636;23.198;2022-07-29T05:29:31;14.23;;;7.50;;
37205;SDS011;23099;42.636;23.198;2022-07-29T05:31:58;12.95;;;7.18;;
37205;SDS011;23099;42.636;23.198;2022-07-29T05:34:24;19.13;;;7.47;;
37205;SDS011;23099;42.636;23.198;2022-07-29T05:36:51;14.75;;;6.40;;
37205;SDS011;23099;42.636;23.198;2022-07-29T05:39:19;13.00;;;8.40;;
37205;SDS011;23099;42.636;23.198;2022-07-29T05:44:13;25.38;;;8.07;;
37205;SDS011;23099;42.636;23.198;2022-07-29T05:46:39;18.35;;;7.65;;
37205;SDS011;23099;42.636;23.198;2022-07-29T05:49:06;12.90;;;8.05;;
37205;SDS011;23099;42.636;23.198;2022-07-29T05:51:33;10.65;;;7.30;;
37205;SDS011;23099;42.636;23.198;2022-07-29T05:54:00;17.05;;;7.88;;
37205;SDS011;23099;42.636;23.198;2022-07-29T05:56:28;16.15;;;9.13;;
37205;SDS011;23099;42.636;23.198;2022-07-29T05:58:55;15.93;;;9.43;;
37205;SDS011;23099;42.636;23.198;2022-07-29T06:01:21;15.05;;;9.90;;
37205;SDS011;23099;42.636;23.198;2022-07-29T06:03:48;16.35;;;10.48;;
37205;SDS011;23099;42.636;23.198;2022-07-29T06:06:16;17.92;;;12.27;;
37205;SDS011;23099;42.636;23.198;2022-07-29T06:08:42;18.30;;;13.45;;
37205;SDS011;23099;42.636;23.198;2022-07-29T06:11:09;19.20;;;14.40;;
37205;SDS011;23099;42.636;23.198;2022-07-29T06:13:37;22.52;;;15.20;;
37205;SDS011;23099;42.636;23.198;2022-07-29T06:16:04;26.75;;;16.13;;
37205;SDS011;23099;42.636;23.198;2022-07-29T06:18:31;26.27;;;16.70;;
37205;SDS011;23099;42.636;23.198;2022-07-29T06:20:58;29.67;;;15.63;;
37205;SDS011;23099;42.636;23.198;2022-07-29T06:23:24;26.45;;;16.58;;
37205;SDS011;23099;42.636;23.198;2022-07-29T06:25:51;23.05;;;15.45;;
37205;SDS011;23099;42.636;23.198;2022-07-29T06:28:18;20.30;;;14.10;;
37205;SDS011;23099;42.636;23.198;2022-07-29T06:30:46;22.10;;;13.05;;
37205;SDS011;23099;42.636;23.198;2022-07-29T06:33:15;18.73;;;11.80;;
37205;SDS011;23099;42.636;23.198;2022-07-29T06:35:43;14.70;;;10.25;;
37205;SDS011;23099;42.636;23.198;2022-07-29T06:38:10;18.27;;;9.90;;
37205;SDS011;23099;42.636;23.198;2022-07-29T06:40:40;18.23;;;9.90;;
37205;SDS011;23099;42.636;23.198;2022-07-29T06:43:25;14.30;;;9.55;;
37205;SDS011;23099;42.636;23.198;2022-07-29T06:45:53;14.82;;;8.15;;
37205;SDS011;23099;42.636;23.198;2022-07-29T06:48:20;10.00;;;7.00;;
37205;SDS011;23099;42.636;23.198;2022-07-29T06:50:46;12.85;;;7.35;;
37205;SDS011;23099;42.636;23.198;2022-07-29T06:53:13;15.57;;;7.80;;
37205;SDS011;23099;42.636;23.198;2022-07-29T06:55:40;13.27;;;6.80;;
37205;SDS011;23099;42.636;23.198;2022-07-29T06:58:07;14.00;;;7.38;;
37205;SDS011;23099;42.636;23.198;2022-07-29T07:00:34;14.90;;;7.10;;
37205;SDS011;23099;42.636;23.198;2022-07-29T07:03:02;13.35;;;7.13;;
37205;SDS011;23099;42.636;23.198;2022-07-29T07:05:29;12.73;;;6.90;;
37205;SDS011;23099;42.636;23.198;2022-07-29T07:07:56;13.18;;;7.20;;
37205;SDS011;23099;42.636;23.198;2022-07-29T07:10:23;11.30;;;6.95;;
37205;SDS011;23099;42.636;23.198;2022-07-29T07:12:49;11.23;;;7.60;;
37205;SDS011;23099;42.636;23.198;2022-07-29T07:15:16;15.30;;;7.60;;
37205;SDS011;23099;42.636;23.198;2022-07-29T07:17:46;10.80;;;7.28;;
37205;SDS011;23099;42.636;23.198;2022-07-29T07:20:15;19.40;;;7.30;;
37205;SDS011;23099;42.636;23.198;2022-07-29T07:22:41;15.23;;;6.88;;
37205;SDS011;23099;42.636;23.198;2022-07-29T07:25:08;14.63;;;7.57;;
37205;SDS011;23099;42.636;23.198;2022-07-29T07:27:35;12.07;;;7.38;;
37205;SDS011;23099;42.636;23.198;2022-07-29T07:30:03;10.97;;;6.73;;
37205;SDS011;23099;42.636;23.198;2022-07-29T07:32:32;11.82;;;7.53;;
37205;SDS011;23099;42.636;23.198;2022-07-29T07:34:58;12.80;;;6.55;;
37205;SDS011;23099;42.636;23.198;2022-07-29T07:37:27;11.52;;;6.55;;
37205;SDS011;23099;42.636;23.198;2022-07-29T07:39:54;13.98;;;6.38;;
37205;SDS011;23099;42.636;23.198;2022-07-29T07:42:21;12.73;;;6.97;;
37205;SDS011;23099;42.636;23.198;2022-07-29T07:44:47;10.63;;;6.07;;
37205;SDS011;23099;42.636;23.198;2022-07-29T07:47:14;11.00;;;6.57;;
37205;SDS011;23099;42.636;23.198;2022-07-29T07:49:44;11.18;;;6.57;;
37205;SDS011;23099;42.636;23.198;2022-07-29T07:52:11;11.65;;;6.97;;
37205;SDS011;23099;42.636;23.198;2022-07-29T07:54:39;10.38;;;6.18;;
37205;SDS011;23099;42.636;23.198;2022-07-29T07:57:06;9.30;;;6.63;;
37205;SDS011;23099;42.636;23.198;2022-07-29T07:59:33;12.00;;;6.70;;
37205;SDS011;23099;42.636;23.198;2022-07-29T08:01:59;10.50;;;6.75;;
37205;SDS011;23099;42.636;23.198;2022-07-29T08:04:27;13.55;;;7.25;;
37205;SDS011;23099;42.636;23.198;2022-07-29T08:06:53;10.05;;;6.35;;
37205;SDS011;23099;42.636;23.198;2022-07-29T08:09:20;13.80;;;6.65;;
37205;SDS011;23099;42.636;23.198;2022-07-29T08:11:49;11.15;;;6.70;;
37205;SDS011;23099;42.636;23.198;2022-07-29T08:14:15;11.27;;;6.07;;
37205;SDS011;23099;42.636;23.198;2022-07-29T08:16:42;9.35;;;5.95;;
37205;SDS011;23099;42.636;23.198;2022-07-29T08:19:09;13.32;;;6.43;;
37205;SDS011;23099;42.636;23.198;2022-07-29T08:21:36;13.73;;;6.38;;
37205;SDS011;23099;42.636;23.198;2022-07-29T08:24:04;10.73;;;5.90;;
37205;SDS011;23099;42.636;23.198;2022-07-29T08:26:50;9.25;;;6.10;;
37205;SDS011;23099;42.636;23.198;2022-07-29T08:31:44;9.38;;;5.88;;
37205;SDS011;23099;42.636;23.198;2022-07-29T08:34:10;10.70;;;5.78;;
37205;SDS011;23099;42.636;23.198;2022-07-29T08:36:38;11.90;;;5.65;;
37205;SDS011;23099;42.636;23.198;2022-07-29T08:39:04;12.93;;;6.18;;
37205;SDS011;23099;42.636;23.198;2022-07-29T08:41:31;9.93;;;6.55;;
37205;SDS011;23099;42.636;23.198;2022-07-29T08:43:59;14.27;;;10.15;;
37205;SDS011;23099;42.636;23.198;2022-07-29T08:48:53;9.75;;;4.90;;
37205;SDS011;23099;42.636;23.198;2022-07-29T08:53:48;11.30;;;6.75;;
37205;SDS011;23099;42.636;23.198;2022-07-29T08:56:17;8.13;;;4.50;;
37205;SDS011;23099;42.636;23.198;2022-07-29T08:58:45;9.18;;;5.18;;
37205;SDS011;23099;42.636;23.198;2022-07-29T09:01:16;8.48;;;4.50;;
37205;SDS011;23099;42.636;23.198;2022-07-29T09:03:49;11.25;;;5.22;;
37205;SDS011;23099;42.636;23.198;2022-07-29T09:06:18;9.05;;;4.63;;
37205;SDS011;23099;42.636;23.198;2022-07-29T09:08:47;9.10;;;3.97;;
37205;SDS011;23099;42.636;23.198;2022-07-29T09:11:14;8.23;;;4.43;;
37205;SDS011;23099;42.636;23.198;2022-07-29T09:13:41;8.82;;;3.70;;
37205;SDS011;23099;42.636;23.198;2022-07-29T09:16:08;7.72;;;4.20;;
37205;SDS011;23099;42.636;23.198;2022-07-29T09:18:37;7.25;;;4.32;;
37205;SDS011;23099;42.636;23.198;2022-07-29T09:21:05;8.80;;;4.07;;
37205;SDS011;23099;42.636;23.198;2022-07-29T09:24:01;6.93;;;3.75;;
37205;SDS011;23099;42.636;23.198;2022-07-29T09:26:30;9.15;;;4.13;;
37205;SDS011;23099;42.636;23.198;2022-07-29T09:28:59;8.98;;;4.03;;
37205;SDS011;23099;42.636;23.198;2022-07-29T09:31:32;7.10;;;3.80;;
37205;SDS011;23099;42.636;23.198;2022-07-29T09:34:02;12.38;;;4.28;;
37205;SDS011;23099;42.636;23.198;2022-07-29T09:36:32;5.30;;;3.08;;
37205;SDS011;23099;42.636;23.198;2022-07-29T09:39:05;8.57;;;4.15;;
37205;SDS011;23099;42.636;23.198;2022-07-29T09:41:43;8.88;;;3.78;;
37205;SDS011;23099;42.636;23.198;2022-07-29T09:44:12;7.03;;;3.55;;
37205;SDS011;23099;42.636;23.198;2022-07-29T09:46:40;6.30;;;3.72;;
37205;SDS011;23099;42.636;23.198;2022-07-29T09:49:19;7.63;;;3.63;;
37205;SDS011;23099;42.636;23.198;2022-07-29T09:51:45;6.18;;;3.45;;
37205;SDS011;23099;42.636;23.198;2022-07-29T09:54:21;5.75;;;4.00;;
37205;SDS011;23099;42.636;23.198;2022-07-29T09:56:49;6.70;;;3.75;;
37205;SDS011;23099;42.636;23.198;2022-07-29T09:59:16;9.45;;;3.95;;
37205;SDS011;23099;42.636;23.198;2022-07-29T10:04:11;9.77;;;3.35;;
37205;SDS011;23099;42.636;23.198;2022-07-29T10:09:24;7.15;;;3.47;;
37205;SDS011;23099;42.636;23.198;2022-07-29T10:12:04;7.22;;;3.80;;
37205;SDS011;23099;42.636;23.198;2022-07-29T10:14:33;6.72;;;3.53;;
37205;SDS011;23099;42.636;23.198;2022-07-29T10:17:00;7.10;;;3.58;;
37205;SDS011;23099;42.636;23.198;2022-07-29T10:19:27;6.70;;;4.03;;
37205;SDS011;23099;42.636;23.198;2022-07-29T10:21:55;7.78;;;4.25;;
37205;SDS011;23099;42.636;23.198;2022-07-29T10:24:24;6.88;;;3.55;;
37205;SDS011;23099;42.636;23.198;2022-07-29T10:26:52;8.73;;;3.38;;
37205;SDS011;23099;42.636;23.198;2022-07-29T10:29:20;6.25;;;3.70;;
37205;SDS011;23099;42.636;23.198;2022-07-29T10:31:49;8.60;;;4.03;;
37205;SDS011;23099;42.636;23.198;2022-07-29T10:34:28;8.93;;;4.18;;
37205;SDS011;23099;42.636;23.198;2022-07-29T10:37:07;5.47;;;4.03;;
37205;SDS011;23099;42.636;23.198;2022-07-29T10:39:46;7.55;;;4.05;;
37205;SDS011;23099;42.636;23.198;2022-07-29T10:42:21;10.35;;;4.20;;
37205;SDS011;23099;42.636;23.198;2022-07-29T10:44:50;9.93;;;4.18;;
37205;SDS011;23099;42.636;23.198;2022-07-29T10:47:19;8.00;;;4.18;;
37205;SDS011;23099;42.636;23.198;2022-07-29T10:49:56;7.40;;;4.10;;
37205;SDS011;23099;42.636;23.198;2022-07-29T10:52:25;8.48;;;4.10;;
37205;SDS011;23099;42.636;23.198;2022-07-29T10:55:32;6.18;;;4.07;;
37205;SDS011;23099;42.636;23.198;2022-07-29T10:58:11;7.13;;;4.25;;
37205;SDS011;23099;42.636;23.198;2022-07-29T11:03:05;6.38;;;4.50;;
37205;SDS011;23099;42.636;23.198;2022-07-29T11:08:23;6.32;;;4.25;;
37205;SDS011;23099;42.636;23.198;2022-07-29T11:10:51;7.38;;;3.95;;
37205;SDS011;23099;42.636;23.198;2022-07-29T11:16:15;6.03;;;3.90;;
37205;SDS011;23099;42.636;23.198;2022-07-29T11:21:47;6.75;;;4.20;;
37205;SDS011;23099;42.636;23.198;2022-07-29T11:24:17;7.10;;;4.32;;
37205;SDS011;23099;42.636;23.198;2022-07-29T11:29:38;7.70;;;4.40;;
37205;SDS011;23099;42.636;23.198;2022-07-29T11:32:10;6.40;;;4.30;;
37205;SDS011;23099;42.636;23.198;2022-07-29T11:34:39;6.80;;;4.35;;
37205;SDS011;23099;42.636;23.198;2022-07-29T11:37:17;8.77;;;4.47;;
37205;SDS011;23099;42.636;23.198;2022-07-29T11:39:47;8.93;;;4.47;;
37205;SDS011;23099;42.636;23.198;2022-07-29T11:42:41;7.30;;;4.15;;
37205;SDS011;23099;42.636;23.198;2022-07-29T11:45:13;7.50;;;3.97;;
37205;SDS011;23099;42.636;23.198;2022-07-29T11:47:46;6.07;;;4.10;;
37205;SDS011;23099;42.636;23.198;2022-07-29T11:50:26;6.35;;;4.35;;
37205;SDS011;23099;42.636;23.198;2022-07-29T11:52:56;7.38;;;4.40;;
37205;SDS011;23099;42.636;23.198;2022-07-29T11:55:24;7.68;;;4.90;;
37205;SDS011;23099;42.636;23.198;2022-07-29T11:57:52;6.38;;;4.50;;
37205;SDS011;23099;42.636;23.198;2022-07-29T12:00:20;8.00;;;4.85;;
37205;SDS011;23099;42.636;23.198;2022-07-29T12:02:50;8.57;;;5.20;;
37205;SDS011;23099;42.636;23.198;2022-07-29T12:05:17;8.15;;;4.78;;
37205;SDS011;23099;42.636;23.198;2022-07-29T12:07:44;7.10;;;4.13;;
37205;SDS011;23099;42.636;23.198;2022-07-29T12:10:11;6.95;;;4.57;;
37205;SDS011;23099;42.636;23.198;2022-07-29T12:12:39;9.03;;;4.73;;
37205;SDS011;23099;42.636;23.198;2022-07-29T12:15:13;6.72;;;4.93;;
37205;SDS011;23099;42.636;23.198;2022-07-29T12:17:42;7.78;;;4.28;;
37205;SDS011;23099;42.636;23.198;2022-07-29T12:20:09;7.85;;;4.20;;
37205;SDS011;23099;42.636;23.198;2022-07-29T12:22:38;5.78;;;3.85;;
37205;SDS011;23099;42.636;23.198;2022-07-29T12:25:09;7.15;;;3.90;;
37205;SDS011;23099;42.636;23.198;2022-07-29T12:27:41;6.72;;;4.00;;
37205;SDS011;23099;42.636;23.198;2022-07-29T12:30:09;9.45;;;4.72;;
37205;SDS011;23099;42.636;23.198;2022-07-29T12:32:38;7.38;;;4.22;;
37205;SDS011;23099;42.636;23.198;2022-07-29T12:35:07;6.90;;;4.10;;
37205;SDS011;23099;42.636;23.198;2022-07-29T12:37:35;7.78;;;4.30;;
37205;SDS011;23099;42.636;23.198;2022-07-29T12:40:04;8.05;;;4.00;;
37205;SDS011;23099;42.636;23.198;2022-07-29T12:42:32;8.43;;;4.05;;
37205;SDS011;23099;42.636;23.198;2022-07-29T12:45:01;6.18;;;4.13;;
37205;SDS011;23099;42.636;23.198;2022-07-29T12:47:28;6.25;;;4.07;;
37205;SDS011;23099;42.636;23.198;2022-07-29T12:50:07;6.20;;;3.90;;
37205;SDS011;23099;42.636;23.198;2022-07-29T12:52:35;7.80;;;4.38;;
37205;SDS011;23099;42.636;23.198;2022-07-29T12:55:02;6.78;;;4.28;;
37205;SDS011;23099;42.636;23.198;2022-07-29T12:57:30;6.75;;;4.40;;
37205;SDS011;23099;42.636;23.198;2022-07-29T13:00:15;7.47;;;4.63;;
37205;SDS011;23099;42.636;23.198;2022-07-29T13:02:42;8.85;;;5.05;;
37205;SDS011;23099;42.636;23.198;2022-07-29T13:05:09;10.87;;;5.40;;
37205;SDS011;23099;42.636;23.198;2022-07-29T13:07:37;6.93;;;4.78;;
37205;SDS011;23099;42.636;23.198;2022-07-29T13:10:13;9.43;;;4.85;;
37205;SDS011;23099;42.636;23.198;2022-07-29T13:15:32;6.85;;;4.28;;
37205;SDS011;23099;42.636;23.198;2022-07-29T13:17:59;6.28;;;4.15;;
37205;SDS011;23099;42.636;23.198;2022-07-29T13:20:27;6.60;;;4.68;;
37205;SDS011;23099;42.636;23.198;2022-07-29T13:22:55;6.80;;;4.00;;
37205;SDS011;23099;42.636;23.198;2022-07-29T13:25:26;5.45;;;3.97;;
37205;SDS011;23099;42.636;23.198;2022-07-29T13:27:55;5.70;;;4.00;;
37205;SDS011;23099;42.636;23.198;2022-07-29T13:30:22;10.00;;;3.90;;
37205;SDS011;23099;42.636;23.198;2022-07-29T13:32:51;8.35;;;4.30;;
37205;SDS011;23099;42.636;23.198;2022-07-29T13:35:20;6.65;;;3.55;;
37205;SDS011;23099;42.636;23.198;2022-07-29T13:37:46;7.80;;;4.13;;
37205;SDS011;23099;42.636;23.198;2022-07-29T13:40:13;9.00;;;4.88;;
37205;SDS011;23099;42.636;23.198;2022-07-29T13:42:40;7.50;;;4.10;;
37205;SDS011;23099;42.636;23.198;2022-07-29T13:45:08;6.50;;;4.53;;
37205;SDS011;23099;42.636;23.198;2022-07-29T13:50:05;7.65;;;4.55;;
37205;SDS011;23099;42.636;23.198;2022-07-29T13:52:35;7.68;;;4.82;;
37205;SDS011;23099;42.636;23.198;2022-07-29T13:55:02;8.98;;;5.45;;
37205;SDS011;23099;42.636;23.198;2022-07-29T13:57:30;8.00;;;5.13;;
37205;SDS011;23099;42.636;23.198;2022-07-29T13:59:57;5.80;;;4.50;;
37205;SDS011;23099;42.636;23.198;2022-07-29T14:02:24;6.47;;;3.83;;
37205;SDS011;23099;42.636;23.198;2022-07-29T14:04:51;7.57;;;4.20;;
37205;SDS011;23099;42.636;23.198;2022-07-29T14:07:19;6.97;;;3.90;;
37205;SDS011;23099;42.636;23.198;2022-07-29T14:09:46;6.65;;;4.28;;
37205;SDS011;23099;42.636;23.198;2022-07-29T14:12:13;5.32;;;3.78;;
37205;SDS011;23099;42.636;23.198;2022-07-29T14:14:40;5.93;;;3.78;;
37205;SDS011;23099;42.636;23.198;2022-07-29T14:17:06;7.57;;;3.63;;
37205;SDS011;23099;42.636;23.198;2022-07-29T14:19:33;7.72;;;3.67;;
37205;SDS011;23099;42.636;23.198;2022-07-29T14:22:02;7.72;;;4.35;;
37205;SDS011;23099;42.636;23.198;2022-07-29T14:24:31;8.25;;;4.03;;
37205;SDS011;23099;42.636;23.198;2022-07-29T14:26:58;8.65;;;3.80;;
37205;SDS011;23099;42.636;23.198;2022-07-29T14:29:25;7.65;;;4.57;;
37205;SDS011;23099;42.636;23.198;2022-07-29T14:31:52;7.07;;;4.00;;
37205;SDS011;23099;42.636;23.198;2022-07-29T14:34:18;6.55;;;3.72;;
37205;SDS011;23099;42.636;23.198;2022-07-29T14:36:45;5.97;;;3.85;;
37205;SDS011;23099;42.636;23.198;2022-07-29T14:39:12;7.90;;;3.78;;
37205;SDS011;23099;42.636;23.198;2022-07-29T14:41:42;6.07;;;4.22;;
37205;SDS011;23099;42.636;23.198;2022-07-29T14:44:08;6.70;;;4.32;;
37205;SDS011;23099;42.636;23.198;2022-07-29T14:46:35;6.25;;;4.30;;
37205;SDS011;23099;42.636;23.198;2022-07-29T14:49:02;7.20;;;4.70;;
37205;SDS011;23099;42.636;23.198;2022-07-29T14:51:29;5.93;;;3.88;;
37205;SDS011;23099;42.636;23.198;2022-07-29T14:53:56;7.50;;;4.37;;
37205;SDS011;23099;42.636;23.198;2022-07-29T14:56:23;7.55;;;3.95;;
37205;SDS011;23099;42.636;23.198;2022-07-29T14:58:51;6.45;;;4.50;;
37205;SDS011;23099;42.636;23.198;2022-07-29T15:01:18;6.32;;;3.92;;
37205;SDS011;23099;42.636;23.198;2022-07-29T15:03:44;6.90;;;4.38;;
37205;SDS011;23099;42.636;23.198;2022-07-29T15:06:11;8.50;;;4.55;;
37205;SDS011;23099;42.636;23.198;2022-07-29T15:08:38;6.60;;;4.50;;
37205;SDS011;23099;42.636;23.198;2022-07-29T15:11:05;6.13;;;3.95;;
37205;SDS011;23099;42.636;23.198;2022-07-29T15:13:32;7.80;;;4.95;;
37205;SDS011;23099;42.636;23.198;2022-07-29T15:16:00;9.40;;;4.90;;
37205;SDS011;23099;42.636;23.198;2022-07-29T15:18:27;7.90;;;4.63;;
37205;SDS011;23099;42.636;23.198;2022-07-29T15:20:54;8.73;;;5.45;;
37205;SDS011;23099;42.636;23.198;2022-07-29T15:23:21;10.32;;;6.18;;
37205;SDS011;23099;42.636;23.198;2022-07-29T15:25:47;8.18;;;5.65;;